Terminal Aerodrome Forecast
Issued by NWS Cleveland, OH

Home | Current Version | Previous Version | Graphics & Text | Print | Product List | Glossary On
Versions: 1 2 3 4 5 6 7 8 9 10 11 12 13 14 15 16 17 18 19 20 21
000
FTUS41 KCLE 181500 AAA
TAFCAK
TAF AMD
KCAK 181500Z 1815/1912 29012KT P6SM -SHRA SCT025 OVC035
      TEMPO 1815/1817 32012G20KT 3SM -SHRA BR BKN015 OVC025
     FM182200 30010KT P6SM OVC035
     FM190500 32010KT P6SM SCT025 OVC050
     FM190900 32008KT P6SM SCT100=

USA.gov is the U.S. government's official web portal to all federal, state and local government web resources and services.